Time;durP1;ratioP1;P1;durP2;ratioP2;P2;SDS_P1;SDS_P2;PMS_P1;PMS_P2;Temp;Humidity;BMP_temperature;BMP_pressure;BME280_temperature;BME280_humidity;BME280_pressure;Samples;Min_cycle;Max_cycle;Signal;HPM_P1;HPM_P2
2023/12/11 00:02:26;;;;;;;12.52;5.22;;;;;;;5.73;100.00;99267.09;4972112;28;20022;-79
2023/12/11 00:04:51;;;;;;;10.85;4.65;;;;;;;5.74;100.00;99268.69;4986604;28;20034;-79
2023/12/11 00:07:17;;;;;;;14.50;4.57;;;;;;;5.79;100.00;99273.66;4971589;28;20026;-77
2023/12/11 00:09:42;;;;;;;18.60;5.00;;;;;;;5.82;100.00;99274.75;4971463;28;20109;-79
2023/12/11 00:12:08;;;;;;;18.08;4.75;;;;;;;5.81;100.00;99276.78;4972043;28;20034;-80
2023/12/11 00:14:33;;;;;;;13.85;4.95;;;;;;;5.87;100.00;99279.75;4970658;28;20412;-77
2023/12/11 00:16:59;;;;;;;12.38;4.18;;;;;;;5.82;100.00;99280.41;4972040;28;20134;-77
2023/12/11 00:19:25;;;;;;;16.35;4.78;;;;;;;5.87;100.00;99293.91;4971932;28;20030;-78
2023/12/11 00:21:50;;;;;;;17.27;4.60;;;;;;;5.88;100.00;99286.19;4972292;28;20113;-78
2023/12/11 00:24:16;;;;;;;14.57;4.97;;;;;;;5.87;100.00;99284.63;4972090;28;20038;-78
2023/12/11 00:26:42;;;;;;;13.27;3.55;;;;;;;5.86;100.00;99275.31;4971959;28;20034;-78
2023/12/11 00:29:07;;;;;;;11.40;4.25;;;;;;;5.87;100.00;99278.94;4972019;28;20436;-77
2023/12/11 00:31:33;;;;;;;14.55;4.47;;;;;;;5.90;100.00;99266.63;4970988;28;20110;-78
2023/12/11 00:33:58;;;;;;;11.68;3.92;;;;;;;5.91;100.00;99273.88;4971833;28;20073;-76
2023/12/11 00:36:24;;;;;;;15.10;4.07;;;;;;;5.93;100.00;99277.00;4973291;28;20027;-77
2023/12/11 00:38:49;;;;;;;10.35;4.43;;;;;;;5.96;100.00;99262.63;4974298;28;20086;-77
2023/12/11 00:41:18;;;;;;;15.13;4.47;;;;;;;5.96;100.00;99273.19;4976743;28;20456;-78
2023/12/11 00:43:43;;;;;;;12.50;4.68;;;;;;;5.96;100.00;99270.34;4977921;28;20037;-78
2023/12/11 00:46:14;;;;;;;10.40;4.15;;;;;;;5.97;100.00;99264.22;4977682;28;20023;-77
2023/12/11 00:48:39;;;;;;;14.10;4.55;;;;;;;5.90;100.00;99267.41;4977402;28;20120;-79
2023/12/11 00:51:05;;;;;;;15.57;4.38;;;;;;;5.89;100.00;99265.09;4977756;28;20380;-77
2023/12/11 00:53:30;;;;;;;9.27;3.60;;;;;;;5.83;100.00;99264.97;4977732;28;20049;-77
2023/12/11 00:55:56;;;;;;;12.13;4.65;;;;;;;5.77;100.00;99266.91;4977462;28;20364;-76
2023/12/11 00:58:21;;;;;;;13.57;4.85;;;;;;;5.79;100.00;99253.03;4992494;28;20426;-78
2023/12/11 01:00:46;;;;;;;13.70;4.25;;;;;;;5.79;100.00;99262.31;4977492;28;20549;-78
2023/12/11 01:03:12;;;;;;;11.93;4.18;;;;;;;5.81;100.00;99256.94;4977247;28;20473;-78
2023/12/11 01:05:37;;;;;;;16.20;5.18;;;;;;;5.84;100.00;99258.03;4986349;28;20113;-77
2023/12/11 01:08:03;;;;;;;11.93;4.28;;;;;;;5.85;100.00;99241.78;4997164;28;20037;-78
2023/12/11 01:10:28;;;;;;;14.90;5.72;;;;;;;5.91;100.00;99229.28;5011929;28;20417;-77
2023/12/11 01:12:54;;;;;;;19.38;4.63;;;;;;;5.95;100.00;99223.41;4996309;28;20034;-77
2023/12/11 01:15:20;;;;;;;12.85;4.70;;;;;;;6.01;100.00;99210.13;4996954;28;20038;-78
2023/12/11 01:17:45;;;;;;;17.98;4.93;;;;;;;6.05;100.00;99205.03;4996582;28;20026;-78
2023/12/11 01:20:11;;;;;;;13.82;5.43;;;;;;;6.07;100.00;99202.53;4996879;28;20040;-77
2023/12/11 01:22:36;;;;;;;15.52;5.22;;;;;;;6.09;100.00;99188.66;4997008;28;20035;-78
2023/12/11 01:25:03;;;;;;;21.42;5.63;;;;;;;6.08;100.00;99192.75;4996762;28;20057;-77
2023/12/11 01:27:28;;;;;;;11.30;4.05;;;;;;;6.08;100.00;99196.38;4996695;28;20065;-78
2023/12/11 01:29:54;;;;;;;13.77;5.20;;;;;;;5.98;100.00;99203.41;4996603;28;20332;-77
2023/12/11 01:32:19;;;;;;;15.85;4.53;;;;;;;5.90;100.00;99207.88;4996202;28;20065;-77
2023/12/11 01:34:45;;;;;;;19.73;5.28;;;;;;;5.78;100.00;99226.75;4996241;28;20106;-78
2023/12/11 01:37:10;;;;;;;13.30;4.95;;;;;;;5.79;100.00;99242.47;4996321;28;20160;-78
2023/12/11 01:39:36;;;;;;;20.67;6.47;;;;;;;5.75;100.00;99258.88;4996455;28;20477;-78
2023/12/11 01:42:01;;;;;;;16.67;5.38;;;;;;;5.66;100.00;99250.47;4996060;28;20034;-78
2023/12/11 01:44:26;;;;;;;20.23;4.85;;;;;;;5.53;100.00;99249.16;4996003;28;20108;-78
2023/12/11 01:46:53;;;;;;;21.25;4.57;;;;;;;5.35;100.00;99247.25;4995909;28;20030;-78
2023/12/11 01:49:18;;;;;;;16.05;5.03;;;;;;;5.25;100.00;99245.75;4996298;28;20379;-78
2023/12/11 01:51:47;;;;;;;15.13;5.40;;;;;;;5.12;100.00;99251.66;5009483;28;20444;-78
2023/12/11 01:54:14;;;;;;;14.93;4.63;;;;;;;5.04;100.00;99253.28;5008803;28;20031;-77
2023/12/11 01:56:40;;;;;;;10.18;3.88;;;;;;;4.96;100.00;99242.81;5008593;28;20045;-77
2023/12/11 01:59:06;;;;;;;16.45;4.43;;;;;;;4.97;100.00;99218.88;5008618;28;20038;-78
2023/12/11 02:01:34;;;;;;;15.48;4.15;;;;;;;4.86;100.00;99199.59;4993425;28;20077;-76
2023/12/11 02:03:59;;;;;;;20.45;4.47;;;;;;;4.74;100.00;99173.13;5007902;28;20034;-78
2023/12/11 02:06:25;;;;;;;12.75;4.68;;;;;;;4.78;100.00;99179.38;4998459;28;20430;-77
2023/12/11 02:08:50;;;;;;;13.60;4.50;;;;;;;4.81;100.00;99169.13;5011822;28;20445;-76
2023/12/11 02:11:16;;;;;;;13.20;4.20;;;;;;;4.84;100.00;99137.84;5013953;28;20045;-75
2023/12/11 02:13:41;;;;;;;11.73;4.18;;;;;;;4.89;100.00;99123.00;5012791;28;20049;-76
2023/12/11 02:16:07;;;;;;;17.90;4.82;;;;;;;4.86;100.00;99118.31;5013091;28;20427;-77
2023/12/11 02:18:34;;;;;;;15.13;4.55;;;;;;;4.85;100.00;99132.97;5011963;28;20056;-76
2023/12/11 02:20:59;;;;;;;15.38;5.03;;;;;;;4.86;100.00;99157.94;5013282;28;20029;-76
2023/12/11 02:23:46;;;;;;;8.32;3.65;;;;;;;4.88;100.00;99157.44;5013247;28;20126;-77
2023/12/11 02:26:13;;;;;;;11.77;3.95;;;;;;;4.94;100.00;99172.50;5014067;28;20022;-78
2023/12/11 02:28:39;;;;;;;17.27;4.75;;;;;;;4.97;100.00;99162.25;5014806;28;20029;-77
2023/12/11 02:31:05;;;;;;;17.25;4.30;;;;;;;4.95;100.00;99151.44;5014558;28;20427;-77
2023/12/11 02:33:30;;;;;;;15.15;4.13;;;;;;;4.96;100.00;99135.25;5014129;28;20383;-78
2023/12/11 02:35:56;;;;;;;15.65;3.90;;;;;;;4.98;100.00;99125.00;5014876;28;20036;-76
2023/12/11 02:38:21;;;;;;;11.27;4.28;;;;;;;5.01;100.00;99120.38;5014842;28;20057;-76
2023/12/11 02:40:47;;;;;;;15.57;4.43;;;;;;;4.96;100.00;99090.72;5014614;28;20510;-78
2023/12/11 02:43:12;;;;;;;14.07;4.15;;;;;;;5.07;100.00;99093.78;5014514;28;20033;-79
2023/12/11 02:45:38;;;;;;;14.82;3.90;;;;;;;5.10;100.00;99103.34;5013337;28;20038;-77
2023/12/11 02:48:03;;;;;;;14.40;4.05;;;;;;;5.08;100.00;99074.72;5014709;28;20041;-78
2023/12/11 02:50:30;;;;;;;12.10;4.28;;;;;;;5.05;100.00;99079.34;5014438;28;20083;-77
2023/12/11 02:52:57;;;;;;;14.93;4.53;;;;;;;5.06;100.00;99080.88;5014733;28;20451;-78
2023/12/11 02:55:23;;;;;;;7.00;3.83;;;;;;;5.06;100.00;99080.88;5014487;28;20022;-79
2023/12/11 02:57:48;;;;;;;12.82;4.93;;;;;;;5.07;100.00;99073.94;5029538;28;20054;-79
2023/12/11 03:00:14;;;;;;;14.85;3.97;;;;;;;5.09;100.00;99073.47;5013377;28;20459;-78
2023/12/11 03:02:39;;;;;;;12.43;4.40;;;;;;;5.11;100.00;99070.91;5014181;28;20402;-77
2023/12/11 03:05:04;;;;;;;10.35;4.60;;;;;;;5.13;100.00;99076.88;5014469;28;20409;-78
2023/12/11 03:07:30;;;;;;;13.45;4.70;;;;;;;5.11;100.00;99068.88;5014282;28;20033;-77
2023/12/11 03:09:55;;;;;;;11.73;4.38;;;;;;;5.13;100.00;99057.06;5014229;28;20386;-78
2023/12/11 03:12:21;;;;;;;11.95;4.72;;;;;;;5.14;100.00;99050.94;5013907;28;20382;-77
2023/12/11 03:14:46;;;;;;;8.57;4.47;;;;;;;5.22;100.00;99048.47;5029406;28;20407;-79
2023/12/11 03:17:12;;;;;;;12.18;4.45;;;;;;;5.24;100.00;99045.97;5014243;28;20037;-78
2023/12/11 03:19:38;;;;;;;9.38;4.40;;;;;;;5.26;100.00;99038.53;5014142;28;20442;-78
2023/12/11 03:22:03;;;;;;;10.52;3.90;;;;;;;5.28;100.00;99032.38;5014134;28;20203;-78
2023/12/11 03:24:29;;;;;;;6.70;3.60;;;;;;;5.31;100.00;99028.56;5013836;28;20057;-77
2023/12/11 03:26:54;;;;;;;11.13;3.90;;;;;;;5.27;100.00;99020.28;5013715;28;20531;-78
2023/12/11 03:29:19;;;;;;;10.40;4.15;;;;;;;5.23;100.00;99019.69;5014032;28;20034;-78
2023/12/11 03:31:45;;;;;;;7.30;3.72;;;;;;;5.20;100.00;99005.72;5013808;28;20034;-78
2023/12/11 03:34:10;;;;;;;8.68;3.58;;;;;;;5.19;100.00;99002.13;5013699;28;20022;-78
2023/12/11 03:36:36;;;;;;;7.53;3.33;;;;;;;5.22;100.00;99003.97;5013789;28;20391;-78
2023/12/11 03:39:01;;;;;;;9.50;4.07;;;;;;;5.21;100.00;99001.59;5013913;28;20037;-78
2023/12/11 03:41:27;;;;;;;10.70;3.22;;;;;;;5.24;100.00;99003.47;5013613;28;20479;-78
2023/12/11 03:43:52;;;;;;;8.55;3.85;;;;;;;5.29;100.00;99003.59;5013669;28;20033;-78
2023/12/11 03:46:18;;;;;;;10.88;3.95;;;;;;;5.30;100.00;98996.63;5013486;28;20037;-78
2023/12/11 03:48:43;;;;;;;5.70;3.15;;;;;;;5.32;100.00;99001.81;5013541;28;20080;-77
2023/12/11 03:51:08;;;;;;;10.38;4.28;;;;;;;5.37;100.00;99001.13;5013751;28;20030;-78
2023/12/11 03:53:34;;;;;;;8.77;3.47;;;;;;;5.41;100.00;98989.59;5013642;28;20030;-78
2023/12/11 03:55:59;;;;;;;9.50;3.50;;;;;;;5.38;100.00;98989.31;5012665;28;20037;-78
2023/12/11 03:58:25;;;;;;;8.25;4.03;;;;;;;5.41;100.00;98992.41;5014224;28;20030;-79
2023/12/11 04:00:50;;;;;;;7.40;3.33;;;;;;;5.45;100.00;98984.53;5012699;28;20026;-78
2023/12/11 04:03:15;;;;;;;6.47;3.05;;;;;;;5.46;100.00;98984.03;5014218;28;20030;-78
2023/12/11 04:05:41;;;;;;;9.07;3.63;;;;;;;5.50;100.00;98989.50;5014050;28;20468;-78
2023/12/11 04:08:06;;;;;;;8.95;2.97;;;;;;;5.55;100.00;98969.75;5014052;28;20030;-77
2023/12/11 04:10:32;;;;;;;5.43;2.75;;;;;;;5.57;100.00;98975.72;5013717;28;20030;-76
2023/12/11 04:13:00;;;;;;;4.60;2.33;;;;;;;5.67;100.00;98973.53;5013599;28;20041;-78
2023/12/11 04:15:25;;;;;;;9.63;2.50;;;;;;;5.77;100.00;98969.31;5015204;28;20033;-78
2023/12/11 04:17:51;;;;;;;3.92;1.90;;;;;;;5.77;100.00;98972.94;5017690;28;20360;-78
2023/12/11 04:20:16;;;;;;;8.13;2.40;;;;;;;5.78;100.00;98968.81;5017658;28;20383;-78
2023/12/11 04:22:42;;;;;;;5.72;2.08;;;;;;;5.85;100.00;98970.44;5017287;28;20029;-78
2023/12/11 04:25:09;;;;;;;6.22;2.25;;;;;;;5.86;100.00;98968.41;5017557;28;20086;-77
2023/12/11 04:27:35;;;;;;;3.75;1.75;;;;;;;5.85;100.00;98961.16;5016425;28;20103;-79
2023/12/11 04:30:00;;;;;;;2.10;1.35;;;;;;;5.84;100.00;98963.25;5018108;28;20034;-77
2023/12/11 04:32:26;;;;;;;3.45;2.00;;;;;;;5.81;100.00;98953.66;5017858;28;20048;-77
2023/12/11 04:34:52;;;;;;;5.90;1.35;;;;;;;5.85;100.00;98959.13;5016405;28;20060;-78
2023/12/11 04:37:17;;;;;;;9.07;1.80;;;;;;;5.82;100.00;98954.44;5016386;28;20104;-79
2023/12/11 04:39:42;;;;;;;4.15;1.90;;;;;;;5.81;100.00;98961.38;5017523;28;20496;-78
2023/12/11 04:42:08;;;;;;;4.45;1.70;;;;;;;5.80;100.00;98957.75;5017563;28;20033;-78
2023/12/11 04:44:33;;;;;;;2.45;1.33;;;;;;;5.81;100.00;98959.31;5017421;28;20116;-78
2023/12/11 04:46:59;;;;;;;2.17;1.33;;;;;;;5.86;100.00;98954.22;5016977;28;20117;-77
2023/12/11 04:49:24;;;;;;;6.10;1.83;;;;;;;5.88;100.00;98951.69;5016686;28;20482;-78
2023/12/11 04:51:50;;;;;;;3.90;1.38;;;;;;;5.92;100.00;98946.59;5016562;28;20456;-78
2023/12/11 04:54:15;;;;;;;6.15;1.73;;;;;;;5.90;100.00;98944.22;5016998;28;20034;-78
2023/12/11 04:56:40;;;;;;;4.90;1.20;;;;;;;5.95;100.00;98942.75;5016989;28;20038;-78
2023/12/11 04:59:06;;;;;;;2.10;1.40;;;;;;;5.97;100.00;98943.06;5017140;28;20033;-78
2023/12/11 05:01:34;;;;;;;3.00;1.70;;;;;;;6.02;100.00;98945.97;5015593;28;20115;-79
2023/12/11 05:03:59;;;;;;;4.00;1.17;;;;;;;6.02;100.00;98948.00;5017106;28;20053;-78
2023/12/11 05:06:26;;;;;;;3.47;1.65;;;;;;;6.04;100.00;98939.81;5016921;28;20456;-78
2023/12/11 05:08:53;;;;;;;6.43;2.03;;;;;;;6.09;100.00;98937.03;5016908;28;20087;-77
2023/12/11 05:11:18;;;;;;;6.20;1.92;;;;;;;6.15;100.00;98931.41;5016918;28;20371;-78
2023/12/11 05:13:44;;;;;;;2.45;1.30;;;;;;;6.16;100.00;98936.59;5034200;28;20038;-78
2023/12/11 05:16:14;;;;;;;2.90;1.35;;;;;;;6.20;100.00;98934.34;5018188;28;20052;-78
2023/12/11 05:18:48;;;;;;;5.95;1.30;;;;;;;6.22;100.00;98931.78;5031469;28;20042;-78
2023/12/11 05:21:15;;;;;;;2.33;1.23;;;;;;;6.23;100.00;98933.34;5016819;28;20459;-78
2023/12/11 05:23:41;;;;;;;2.30;1.30;;;;;;;6.24;100.00;98925.59;5016397;28;20032;-79
2023/12/11 05:26:08;;;;;;;3.45;1.70;;;;;;;6.28;100.00;98933.91;5016535;28;20033;-78
2023/12/11 05:28:36;;;;;;;1.92;1.50;;;;;;;6.29;100.00;98941.16;5016733;28;20079;-77
2023/12/11 05:31:02;;;;;;;3.20;1.08;;;;;;;6.23;100.00;98939.03;5016327;28;20033;-78
2023/12/11 05:33:29;;;;;;;7.10;1.50;;;;;;;6.29;100.00;98933.41;5016123;28;20177;-77
2023/12/11 05:35:56;;;;;;;3.15;1.30;;;;;;;6.33;100.00;98933.25;5015845;28;20034;-77
2023/12/11 05:38:24;;;;;;;6.30;1.52;;;;;;;6.31;100.00;98935.78;5015646;28;20038;-77
2023/12/11 05:40:51;;;;;;;4.20;1.45;;;;;;;6.38;100.00;98941.81;5016172;28;20029;-79
2023/12/11 05:43:17;;;;;;;2.13;1.10;;;;;;;6.43;100.00;98934.66;5014737;28;20141;-76
2023/12/11 05:45:43;;;;;;;3.70;1.83;;;;;;;6.42;100.00;98944.44;5016447;28;20049;-80
2023/12/11 05:48:10;;;;;;;4.60;1.50;;;;;;;6.45;100.00;98935.69;5016941;28;20423;-80
2023/12/11 05:50:36;;;;;;;3.65;1.80;;;;;;;6.52;100.00;98937.31;5016568;28;20460;-78
2023/12/11 05:53:03;;;;;;;5.55;1.23;;;;;;;6.51;100.00;98942.22;5016705;28;20041;-78
2023/12/11 05:55:29;;;;;;;5.05;1.83;;;;;;;6.60;100.00;98941.28;5016336;28;20033;-78
2023/12/11 05:57:54;;;;;;;3.08;1.42;;;;;;;6.68;100.00;98940.34;5012050;28;20363;-78
2023/12/11 06:00:21;;;;;;;3.63;1.42;;;;;;;6.70;100.00;98942.69;4981895;28;20053;-79
2023/12/11 06:02:49;;;;;;;3.03;1.48;;;;;;;6.73;100.00;98935.25;4977182;28;20078;-78
2023/12/11 06:05:15;;;;;;;6.20;1.90;;;;;;;6.75;100.00;98938.34;4976671;28;20049;-79
2023/12/11 06:07:43;;;;;;;3.50;1.77;;;;;;;6.78;100.00;98946.63;4976017;28;20070;-79
2023/12/11 06:10:09;;;;;;;4.15;1.95;;;;;;;6.76;100.00;98940.69;4976734;28;20107;-80
2023/12/11 06:12:36;;;;;;;3.78;2.10;;;;;;;6.80;100.00;98940.47;4988025;28;20128;-79
2023/12/11 06:15:03;;;;;;;8.13;2.55;;;;;;;6.77;100.00;98941.47;5013668;28;20050;-78
2023/12/11 06:17:30;;;;;;;5.47;2.72;;;;;;;6.72;100.00;98945.81;5013724;28;20034;-78
2023/12/11 06:19:55;;;;;;;7.20;2.40;;;;;;;6.71;100.00;98954.81;5015791;28;20040;-78
2023/12/11 06:22:21;;;;;;;4.82;2.00;;;;;;;6.69;100.00;98941.13;5015561;28;20105;-77
2023/12/11 06:24:47;;;;;;;4.05;2.15;;;;;;;6.62;100.00;98941.56;5015122;28;20432;-77
2023/12/11 06:27:12;;;;;;;3.83;2.05;;;;;;;6.53;100.00;98942.50;5014769;28;20042;-77
2023/12/11 06:29:39;;;;;;;6.78;2.17;;;;;;;6.44;100.00;98945.47;5028735;28;20121;-74
2023/12/11 06:32:06;;;;;;;5.00;2.10;;;;;;;6.35;100.00;98950.53;5014789;28;20057;-78
2023/12/11 06:34:33;;;;;;;3.72;1.90;;;;;;;6.21;100.00;98957.81;5014803;28;20060;-76
2023/12/11 06:37:01;;;;;;;4.43;1.73;;;;;;;6.15;100.00;98956.94;5014905;28;20045;-75
2023/12/11 06:39:27;;;;;;;2.30;2.03;;;;;;;6.09;100.00;98950.44;5014296;28;20034;-77
2023/12/11 06:41:53;;;;;;;2.70;1.80;;;;;;;6.04;100.00;98956.81;5014488;28;20526;-78
2023/12/11 06:44:21;;;;;;;3.58;1.58;;;;;;;6.07;100.00;98958.66;5014444;28;20060;-76
2023/12/11 06:46:47;;;;;;;8.30;2.10;;;;;;;6.03;100.00;98958.88;5014676;28;20025;-78
2023/12/11 06:49:12;;;;;;;4.72;1.52;;;;;;;6.05;100.00;98959.13;5014541;28;20033;-77
2023/12/11 06:51:38;;;;;;;2.72;1.55;;;;;;;6.13;100.00;98963.13;5014120;28;20037;-78
2023/12/11 06:54:06;;;;;;;11.15;2.10;;;;;;;6.14;100.00;98961.84;5013103;28;20475;-78
2023/12/11 06:56:32;;;;;;;2.55;1.75;;;;;;;6.03;100.00;98970.22;5014359;28;20419;-79
2023/12/11 06:58:59;;;;;;;9.50;2.97;;;;;;;5.94;100.00;98961.84;5014665;28;20464;-78
2023/12/11 07:01:30;;;;;;;4.88;2.35;;;;;;;5.95;100.00;98957.72;5013211;28;20033;-77
2023/12/11 07:03:56;;;;;;;4.68;2.72;;;;;;;5.93;100.00;98959.50;4996727;28;20049;-77
2023/12/11 07:06:37;;;;;;;3.95;2.15;;;;;;;5.94;100.00;98958.22;5014336;28;20116;-77
2023/12/11 07:09:03;;;;;;;11.43;2.63;;;;;;;5.90;100.00;98964.06;5014055;28;20113;-77
2023/12/11 07:11:28;;;;;;;4.13;2.20;;;;;;;5.93;100.00;98965.16;5012304;28;20109;-78
2023/12/11 07:13:53;;;;;;;4.53;2.28;;;;;;;5.92;100.00;98972.09;5002876;28;20464;-77
2023/12/11 07:16:19;;;;;;;5.85;2.80;;;;;;;5.91;100.00;98974.16;4992117;28;20046;-78
2023/12/11 07:18:45;;;;;;;7.82;2.50;;;;;;;5.89;100.00;98978.78;4990832;28;20551;-79
2023/12/11 07:21:11;;;;;;;5.70;2.75;;;;;;;5.95;100.00;98979.59;4991287;28;20109;-78
2023/12/11 07:23:37;;;;;;;4.78;2.22;;;;;;;6.03;100.00;98975.09;4990417;28;20045;-78
2023/12/11 07:26:07;;;;;;;4.43;2.75;;;;;;;6.09;100.00;98988.06;4991440;28;20057;-78
2023/12/11 07:28:33;;;;;;;4.95;2.55;;;;;;;6.17;100.00;98989.22;4991672;28;20026;-78
2023/12/11 07:30:58;;;;;;;4.93;2.60;;;;;;;6.25;100.00;98984.69;4994068;28;20579;-79
2023/12/11 07:33:24;;;;;;;4.68;2.85;;;;;;;6.25;100.00;98993.19;4993040;28;20038;-78
2023/12/11 07:35:50;;;;;;;5.90;2.70;;;;;;;6.36;100.00;98992.59;4994148;28;20026;-78
2023/12/11 07:38:16;;;;;;;6.75;3.15;;;;;;;6.55;100.00;98985.34;5009180;28;20475;-78
2023/12/11 07:40:41;;;;;;;8.27;2.80;;;;;;;6.73;100.00;98986.34;4993931;28;20104;-79
2023/12/11 07:43:08;;;;;;;6.20;2.80;;;;;;;6.87;100.00;98991.91;4993582;28;20058;-78
2023/12/11 07:45:34;;;;;;;3.97;2.60;;;;;;;7.00;100.00;98988.69;4993798;28;20037;-79
2023/12/11 07:47:59;;;;;;;3.60;2.55;;;;;;;7.05;100.00;98991.59;4994157;28;20464;-78
2023/12/11 07:50:24;;;;;;;8.70;2.67;;;;;;;7.17;100.00;98994.53;5008199;28;20085;-80
2023/12/11 07:52:50;;;;;;;5.88;2.78;;;;;;;7.24;100.00;98985.56;4993872;28;20058;-77
2023/12/11 07:55:15;;;;;;;4.78;2.55;;;;;;;7.28;100.00;98992.56;4993798;28;20066;-78
2023/12/11 07:57:41;;;;;;;5.43;2.80;;;;;;;7.36;100.00;98990.06;4993725;28;20030;-78
2023/12/11 08:00:07;;;;;;;5.43;2.58;;;;;;;7.42;100.00;98991.66;4992385;28;20042;-78
2023/12/11 08:02:37;;;;;;;4.40;2.60;;;;;;;7.50;100.00;98995.63;4993675;28;20089;-78
2023/12/11 08:05:03;;;;;;;4.65;2.70;;;;;;;7.59;100.00;98994.66;4993677;28;20026;-78
2023/12/11 08:07:28;;;;;;;7.25;2.70;;;;;;;7.66;100.00;98997.03;4992286;28;20034;-79
2023/12/11 08:09:54;;;;;;;7.18;2.95;;;;;;;7.72;100.00;98994.25;4993727;28;20048;-80
2023/12/11 08:12:19;;;;;;;7.68;2.58;;;;;;;7.78;100.00;98992.19;4992186;28;20037;-79
2023/12/11 08:14:45;;;;;;;4.97;2.38;;;;;;;7.81;100.00;98994.84;4991988;28;20447;-78
2023/12/11 08:17:11;;;;;;;3.35;2.53;;;;;;;7.88;100.00;99002.09;4993660;28;20549;-77
2023/12/11 08:19:37;;;;;;;4.07;2.63;;;;;;;7.94;100.00;99000.09;5008800;28;20038;-81
2023/12/11 08:22:03;;;;;;;3.20;2.53;;;;;;;7.97;100.00;98997.00;4993674;28;20161;-81
2023/12/11 08:24:28;;;;;;;6.25;2.67;;;;;;;8.04;100.00;99001.44;4993704;28;20038;-79
2023/12/11 08:26:54;;;;;;;5.95;2.65;;;;;;;8.02;100.00;99001.16;4993579;28;20491;-80
2023/12/11 08:29:21;;;;;;;8.15;2.40;;;;;;;8.12;100.00;99002.50;5008762;28;20105;-78
2023/12/11 08:31:47;;;;;;;2.50;2.13;;;;;;;8.16;100.00;99003.09;4993728;28;20460;-79
2023/12/11 08:34:12;;;;;;;8.32;2.55;;;;;;;8.18;100.00;98999.75;4993791;28;20026;-78
2023/12/11 08:36:38;;;;;;;3.47;2.40;;;;;;;8.18;100.00;99009.06;5008622;28;20034;-78
2023/12/11 08:39:03;;;;;;;3.72;2.70;;;;;;;8.28;100.00;98998.25;4992289;28;20152;-78
2023/12/11 08:41:29;;;;;;;7.32;2.58;;;;;;;8.44;100.00;99008.94;4993666;28;20084;-79
2023/12/11 08:43:55;;;;;;;8.30;2.30;;;;;;;8.53;100.00;98999.41;4993696;28;20436;-79
2023/12/11 08:46:22;;;;;;;5.53;2.05;;;;;;;8.58;100.00;99012.88;4993447;28;20026;-78
2023/12/11 08:48:48;;;;;;;4.72;2.30;;;;;;;8.63;100.00;99017.81;4993527;28;20026;-79
2023/12/11 08:51:17;;;;;;;6.10;2.45;;;;;;;8.72;100.00;99024.06;4993493;28;20030;-78
2023/12/11 08:53:42;;;;;;;8.50;2.47;;;;;;;8.73;100.00;99017.09;4993608;28;20030;-79
2023/12/11 08:56:07;;;;;;;6.95;2.65;;;;;;;8.75;100.00;99020.22;4993153;28;20061;-78
2023/12/11 08:58:33;;;;;;;4.93;2.17;;;;;;;8.83;100.00;99020.50;4993557;28;20049;-80
2023/12/11 09:00:58;;;;;;;6.22;2.40;;;;;;;8.91;100.00;99027.25;4994458;28;20046;-79
2023/12/11 09:03:24;;;;;;;4.55;2.20;;;;;;;8.95;100.00;99012.78;4997092;28;20117;-78
2023/12/11 09:05:49;;;;;;;7.30;2.42;;;;;;;9.06;100.00;99024.19;4997592;28;20482;-78
2023/12/11 09:08:15;;;;;;;3.70;2.25;;;;;;;9.17;100.00;99019.31;4997592;28;20464;-79
2023/12/11 09:10:40;;;;;;;2.83;1.95;;;;;;;9.21;100.00;99016.97;4997004;28;20376;-79
2023/12/11 09:13:06;;;;;;;10.27;2.30;;;;;;;9.30;100.00;99020.91;5011754;28;20519;-79
2023/12/11 09:15:32;;;;;;;3.65;1.92;;;;;;;9.35;100.00;99017.28;4996591;28;20142;-79
2023/12/11 09:17:57;;;;;;;4.30;2.03;;;;;;;9.29;100.00;99013.63;4996890;28;20053;-78
2023/12/11 09:20:22;;;;;;;3.63;1.98;;;;;;;9.36;100.00;99016.72;4996765;28;20030;-78
2023/12/11 09:22:48;;;;;;;5.22;2.25;;;;;;;9.51;100.00;99016.50;4996547;28;20388;-78
2023/12/11 09:25:14;;;;;;;4.53;2.10;;;;;;;9.55;100.00;99006.38;4996423;28;20026;-79
2023/12/11 09:27:39;;;;;;;8.63;2.60;;;;;;;9.58;100.00;99005.38;5011831;28;20057;-78
2023/12/11 09:30:11;;;;;;;3.90;2.30;;;;;;;9.65;100.00;99013.38;4996517;28;20041;-78
2023/12/11 09:32:37;;;;;;;4.85;1.95;;;;;;;9.65;100.00;98999.13;4995297;28;20030;-79
2023/12/11 09:35:03;;;;;;;6.20;2.03;;;;;;;9.75;100.00;99002.53;5011513;28;20052;-77
2023/12/11 09:37:29;;;;;;;6.03;2.30;;;;;;;9.82;100.00;99004.88;4996377;28;20034;-78
2023/12/11 09:39:54;;;;;;;2.80;2.03;;;;;;;9.85;100.00;99006.66;4996334;28;20491;-78
2023/12/11 09:42:20;;;;;;;5.65;2.53;;;;;;;9.91;100.00;98998.88;4996505;28;20368;-79
2023/12/11 09:44:47;;;;;;;3.58;1.88;;;;;;;9.99;100.00;99002.75;4996351;28;20428;-79
2023/12/11 09:47:19;;;;;;;4.28;2.40;;;;;;;10.13;100.00;98989.53;4996300;28;20062;-78
2023/12/11 09:49:46;;;;;;;2.28;2.08;;;;;;;10.19;100.00;98990.28;4996209;28;20069;-77
2023/12/11 09:52:11;;;;;;;4.55;2.20;;;;;;;10.26;100.00;98983.25;4994946;28;20031;-78
2023/12/11 09:54:37;;;;;;;4.18;2.95;;;;;;;10.18;100.00;98980.19;4995945;28;20022;-78
2023/12/11 09:57:03;;;;;;;4.30;2.10;;;;;;;10.10;100.00;98968.50;4994746;28;20073;-78
2023/12/11 09:59:30;;;;;;;5.03;2.70;;;;;;;9.89;100.00;98969.34;5011208;28;20036;-77
2023/12/11 10:01:56;;;;;;;5.57;2.50;;;;;;;9.66;100.00;98969.31;4994755;28;20030;-79
2023/12/11 10:04:22;;;;;;;6.15;2.67;;;;;;;9.53;100.00;98960.50;5011101;28;20037;-79
2023/12/11 10:06:51;;;;;;;4.45;2.22;;;;;;;9.37;100.00;98957.66;4995833;28;20380;-78
2023/12/11 10:09:30;;;;;;;5.25;2.55;;;;;;;9.23;100.00;98957.38;4995922;28;20030;-78
2023/12/11 10:12:00;;;;;;;4.22;2.30;;;;;;;9.28;100.00;98955.84;4995876;28;20026;-78
2023/12/11 10:14:28;;;;;;;4.38;2.33;;;;;;;9.42;100.00;98951.19;4993854;28;20043;-80
2023/12/11 10:16:54;;;;;;;4.32;2.92;;;;;;;9.51;100.00;98942.34;4996051;28;20030;-79
2023/12/11 10:19:30;;;;;;;5.70;2.10;;;;;;;9.49;100.00;98940.03;4995920;28;20038;-78
2023/12/11 10:21:56;;;;;;;4.80;2.20;;;;;;;9.50;100.00;98933.03;4996122;28;20542;-78
2023/12/11 10:24:22;;;;;;;4.85;2.30;;;;;;;9.53;100.00;98934.84;4995839;28;20030;-78
2023/12/11 10:26:55;;;;;;;4.93;2.17;;;;;;;9.55;100.00;98920.06;4994260;28;20476;-78
2023/12/11 10:29:21;;;;;;;5.05;2.20;;;;;;;9.73;100.00;98927.34;4995943;28;20101;-79
2023/12/11 10:31:47;;;;;;;5.57;2.05;;;;;;;9.93;100.00;98922.13;4995347;28;20109;-78
2023/12/11 10:34:13;;;;;;;4.35;1.90;;;;;;;10.20;100.00;98914.75;5010767;28;20033;-78
2023/12/11 10:36:51;;;;;;;7.50;2.67;;;;;;;10.30;100.00;98921.72;4995293;28;20552;-80
2023/12/11 10:39:20;;;;;;;3.92;2.80;;;;;;;10.40;100.00;98928.69;4995371;28;20117;-79
2023/12/11 10:41:46;;;;;;;6.03;2.17;;;;;;;10.56;100.00;98924.22;4993917;28;20030;-79
2023/12/11 10:44:25;;;;;;;4.72;2.38;;;;;;;10.74;100.00;98911.38;4995003;28;20122;-78
2023/12/11 10:46:54;;;;;;;5.00;2.42;;;;;;;10.82;100.00;98903.81;4995287;28;20438;-79
2023/12/11 10:49:23;;;;;;;4.13;2.10;;;;;;;10.82;100.00;98890.31;4995081;28;20030;-78
2023/12/11 10:51:49;;;;;;;4.97;2.13;;;;;;;10.79;100.00;98884.84;4995142;28;20037;-77
2023/12/11 10:54:15;;;;;;;4.95;2.28;;;;;;;10.73;100.00;98884.88;4995155;28;20031;-80
2023/12/11 10:56:43;;;;;;;4.53;1.90;;;;;;;10.69;100.00;98895.06;4994992;28;20026;-79
2023/12/11 10:59:11;;;;;;;4.13;2.10;;;;;;;10.55;100.00;98885.53;4993746;28;20438;-80
2023/12/11 11:01:47;;;;;;;5.88;1.98;;;;;;;10.28;100.00;98875.81;4994982;28;20088;-79
2023/12/11 11:04:13;;;;;;;5.85;2.08;;;;;;;10.26;100.00;98874.78;5009975;28;20040;-78
2023/12/11 11:06:47;;;;;;;2.17;1.90;;;;;;;10.32;100.00;98866.97;4993536;28;20033;-78
2023/12/11 11:09:18;;;;;;;2.28;2.00;;;;;;;10.45;100.00;98864.28;5009723;28;20039;-79
2023/12/11 11:11:49;;;;;;;2.72;1.48;;;;;;;10.54;100.00;98863.97;4994528;28;20703;-78
2023/12/11 11:14:17;;;;;;;3.80;2.00;;;;;;;10.67;100.00;98860.53;4994197;28;20022;-79
2023/12/11 11:17:03;;;;;;;2.75;1.73;;;;;;;10.79;100.00;98865.63;4994590;28;20037;-78
2023/12/11 11:19:29;;;;;;;3.80;1.73;;;;;;;10.88;100.00;98862.44;4994122;28;20108;-78
2023/12/11 11:22:20;;;;;;;3.67;2.00;;;;;;;11.06;100.00;98880.25;4994148;28;20030;-78
2023/12/11 11:24:46;;;;;;;4.68;1.90;;;;;;;11.13;100.00;98871.13;4988422;28;20129;-79
2023/12/11 11:27:38;;;;;;;5.88;1.77;;;;;;;11.20;100.00;98874.19;4994515;28;20114;-79